Strona główna
METAR-TAF:

METAR-TAF

Lotnisko :

Lyndonville, Vermont, Stany Zjednoczone

Szerokość geograficzna: 44-34-09N, Długość geograficzna: 072-01-05W, wysokość: 362 m

Aktualna obserwacja pogody

Raport powstał 10 minut temu, godzina 03:16 UTC
Wiatr 3 kt od północ
Temperatura 7°C
Wilgotność 70%
Ciśnienie 1015 hPa
Widzialność: 16.1 km
Przerywane chmury na wysokości 6000 ft
Zachmurzenie całkowite na wysokości 11000 ft

METAR: KCDA 040316Z AUTO 35003KT 10SM BKN060 OVC110 07/02 A2998 RMK AO2 T00660015

czas: 23:26 (03:26 UTC)


TAF: brakujący

Obserwacja i prognoza pogody dla ponad 4000 lotnisk (raport METAR i TAF).

Dostępne stacje oznaczono żółtymi i czerwonymi punktami na mapie.

Najedź kursorem aby zobaczyć nazwę stacji.

Kliknij aby zobaczyć obserwacje i prognozy pogody.

Aby zmienić mapę: kliknij na zielony przycisk z czarnym krzyżykiem, aby powiększyć; na zielony przycisk z myślnikiem, aby pomniejszyć; na zielone strzałki, aby przejść do map sąsiednich.


METAR-TAF: